Time;durP1;ratioP1;P1;durP2;ratioP2;P2;SDS_P1;SDS_P2;PMS_P1;PMS_P2;Temp;Humidity;BMP_temperature;BMP_pressure;BME280_temperature;BME280_humidity;BME280_pressure;Samples;Min_cycle;Max_cycle;Signal;HPM_P1;HPM_P2
2022/12/08 00:02:13;;;;;;;12.00;7.57;;;4.00;99.90;;;;;;5050214;28;20538;-78
2022/12/08 00:10:07;;;;;;;4.13;3.88;;;3.90;99.90;;;;;;5048742;28;20217;-78
2022/12/08 00:12:34;;;;;;;3.33;3.13;;;3.90;99.90;;;;;;5051482;28;21058;-78
2022/12/08 00:15:01;;;;;;;5.65;5.07;;;3.90;99.90;;;;;;5050847;28;20226;-78
2022/12/08 00:17:28;;;;;;;2.20;2.10;;;3.90;99.90;;;;;;5051647;28;20591;-78
2022/12/08 00:19:54;;;;;;;5.68;3.53;;;3.90;99.90;;;;;;5047735;28;20197;-79
2022/12/08 00:22:23;;;;;;;0.77;0.77;;;3.90;99.90;;;;;;5044991;28;20205;-79
2022/12/08 00:24:49;;;;;;;1.83;1.73;;;3.90;99.90;;;;;;5049694;28;20214;-78
2022/12/08 00:27:16;;;;;;;2.92;2.75;;;3.90;99.90;;;;;;5050137;28;20273;-77
2022/12/08 00:29:44;;;;;;;1.17;1.17;;;3.90;99.90;;;;;;5052057;28;20615;-78
2022/12/08 00:32:11;;;;;;;0.50;0.40;;;3.90;99.90;;;;;;5052371;28;20639;-78
2022/12/08 00:34:37;;;;;;;2.35;2.15;;;3.90;99.90;;;;;;5050000;28;20221;-78
2022/12/08 00:37:05;;;;;;;2.22;2.10;;;3.90;99.90;;;;;;5051170;28;20201;-78
2022/12/08 00:39:33;;;;;;;3.25;3.05;;;4.00;99.90;;;;;;5051488;28;20203;-77
2022/12/08 00:42:12;;;;;;;1.60;1.50;;;4.00;99.90;;;;;;5047224;28;20208;-78
2022/12/08 00:44:39;;;;;;;2.25;0.98;;;3.90;99.90;;;;;;5049006;28;20244;-74
2022/12/08 00:47:06;;;;;;;0.93;0.93;;;3.90;99.90;;;;;;5049907;28;20197;-79
2022/12/08 00:49:33;;;;;;;1.65;1.52;;;3.90;99.90;;;;;;5051863;28;20638;-77
2022/12/08 00:51:59;;;;;;;6.55;2.53;;;4.00;99.90;;;;;;5050905;28;20292;-77
2022/12/08 00:54:26;;;;;;;3.42;2.42;;;3.90;99.90;;;;;;5046160;28;20209;-79
2022/12/08 00:56:54;;;;;;;2.50;2.40;;;3.90;99.90;;;;;;5049439;28;20201;-77
2022/12/08 00:59:21;;;;;;;0.65;0.65;;;3.90;99.90;;;;;;5050947;28;20191;-77
2022/12/08 01:01:48;;;;;;;3.50;2.67;;;3.90;99.90;;;;;;5049749;28;20673;-77
2022/12/08 01:04:17;;;;;;;1.98;1.88;;;3.90;99.90;;;;;;5049400;28;20215;-77
2022/12/08 01:06:45;;;;;;;1.75;1.63;;;3.90;99.90;;;;;;5050000;28;20194;-78
2022/12/08 01:09:13;;;;;;;5.00;1.35;;;3.80;99.90;;;;;;5051561;28;20225;-74
2022/12/08 01:11:40;;;;;;;11.95;6.80;;;3.90;99.90;;;;;;5049611;28;20545;-78
2022/12/08 01:14:08;;;;;;;3.40;1.83;;;3.80;99.90;;;;;;5050026;28;20210;-77
2022/12/08 01:16:36;;;;;;;3.00;2.80;;;3.80;99.90;;;;;;5047891;28;20569;-79
2022/12/08 01:19:04;;;;;;;1.23;1.23;;;3.90;99.90;;;;;;5050813;28;20237;-79
2022/12/08 01:21:30;;;;;;;18.30;6.70;;;3.80;99.90;;;;;;5050748;28;20205;-77
2022/12/08 01:23:59;;;;;;;12.38;4.32;;;3.90;99.90;;;;;;5049983;28;20297;-77
2022/12/08 01:26:26;;;;;;;2.28;2.17;;;3.90;99.90;;;;;;5049003;28;20190;-79
2022/12/08 01:28:53;;;;;;;2.88;2.60;;;3.80;99.90;;;;;;5050881;28;20199;-79
2022/12/08 01:31:22;;;;;;;8.18;6.80;;;3.80;99.90;;;;;;5049260;28;20202;-78
2022/12/08 01:33:49;;;;;;;8.48;6.55;;;3.80;99.90;;;;;;5051052;28;20225;-78
2022/12/08 01:36:20;;;;;;;20.27;11.07;;;3.80;99.90;;;;;;5052894;28;20191;-75
2022/12/08 01:38:47;;;;;;;3.72;2.35;;;3.80;99.90;;;;;;5054392;28;20197;-79
2022/12/08 01:41:15;;;;;;;1.75;1.65;;;3.80;99.90;;;;;;5053820;28;20195;-75
2022/12/08 01:44:00;;;;;;;5.15;4.75;;;3.80;99.90;;;;;;5054076;28;20206;-78
2022/12/08 01:46:30;;;;;;;24.80;8.75;;;3.90;99.90;;;;;;5054242;28;20194;-79
2022/12/08 01:49:02;;;;;;;1.50;1.40;;;3.90;99.90;;;;;;5052997;28;20218;-79
2022/12/08 01:51:30;;;;;;;6.28;3.88;;;3.90;99.90;;;;;;5053955;28;20193;-78
2022/12/08 01:53:57;;;;;;;6.90;4.82;;;3.90;99.90;;;;;;5053501;28;20214;-78
2022/12/08 01:56:31;;;;;;;6.70;3.83;;;3.90;99.90;;;;;;5051230;28;20676;-78
2022/12/08 01:58:59;;;;;;;4.32;3.80;;;3.90;99.90;;;;;;5052543;28;20650;-78
2022/12/08 02:01:26;;;;;;;10.77;7.15;;;3.90;99.90;;;;;;5054574;28;20200;-77
2022/12/08 02:03:58;;;;;;;0.70;0.70;;;3.90;99.90;;;;;;5053980;28;20218;-77
2022/12/08 02:06:27;;;;;;;6.40;1.10;;;3.90;99.90;;;;;;5053782;28;20187;-78
2022/12/08 02:08:54;;;;;;;9.18;4.18;;;3.90;99.90;;;;;;5043500;28;20193;-75
2022/12/08 02:11:21;;;;;;;7.65;4.32;;;3.90;99.90;;;;;;5054110;28;20195;-78
2022/12/08 02:13:50;;;;;;;4.47;3.63;;;4.00;99.90;;;;;;5053127;28;20222;-77
2022/12/08 02:16:27;;;;;;;16.98;8.20;;;4.00;99.90;;;;;;5053116;28;20193;-78
2022/12/08 02:19:04;;;;;;;8.52;5.28;;;3.90;99.90;;;;;;5044329;28;20277;-74
2022/12/08 02:21:38;;;;;;;2.58;2.42;;;3.90;99.90;;;;;;5050008;28;20232;-77
2022/12/08 02:24:14;;;;;;;3.30;3.00;;;3.90;99.90;;;;;;5053266;28;20215;-75
2022/12/08 02:27:10;;;;;;;0.50;0.40;;;3.90;99.90;;;;;;5054914;28;20284;-78
2022/12/08 02:30:01;;;;;;;1.67;1.35;;;3.90;99.90;;;;;;5053602;28;20225;-74
2022/12/08 02:33:07;;;;;;;1.50;1.13;;;3.90;99.90;;;;;;5050828;28;20218;-77
2022/12/08 02:35:44;;;;;;;6.53;5.80;;;3.90;99.90;;;;;;5051579;28;20289;-78
2022/12/08 02:38:19;;;;;;;9.98;5.80;;;3.90;99.90;;;;;;5053714;28;20201;-76
2022/12/08 02:40:53;;;;;;;1.40;1.30;;;3.90;99.90;;;;;;5052127;28;20281;-78
2022/12/08 02:43:27;;;;;;;12.25;6.70;;;3.90;99.90;;;;;;5052479;28;20192;-77
2022/12/08 02:45:59;;;;;;;6.10;5.53;;;3.90;99.90;;;;;;5047560;28;20199;-78
2022/12/08 02:48:27;;;;;;;8.27;6.05;;;4.00;99.90;;;;;;5053346;28;20568;-78
2022/12/08 02:50:56;;;;;;;13.02;3.28;;;4.00;99.90;;;;;;5046851;28;20201;-74
2022/12/08 02:53:23;;;;;;;11.13;4.57;;;4.00;99.90;;;;;;5051587;28;20201;-78
2022/12/08 02:55:57;;;;;;;2.75;2.15;;;3.90;99.90;;;;;;5052135;28;20194;-78
2022/12/08 02:58:36;;;;;;;3.20;3.00;;;4.00;99.90;;;;;;5049458;28;20188;-78
2022/12/08 03:01:20;;;;;;;1.65;1.55;;;4.00;99.90;;;;;;5047059;28;20269;-78
2022/12/08 03:03:53;;;;;;;3.33;1.40;;;4.00;99.90;;;;;;5052452;28;20214;-79
2022/12/08 03:06:29;;;;;;;8.40;7.45;;;4.10;99.90;;;;;;5052730;28;20209;-77
2022/12/08 03:09:00;;;;;;;7.18;4.70;;;4.10;99.90;;;;;;5045783;28;20194;-78
2022/12/08 03:11:33;;;;;;;0.50;0.50;;;4.10;99.90;;;;;;5053645;28;20199;-78
2022/12/08 03:14:03;;;;;;;15.65;9.20;;;4.10;99.90;;;;;;5045608;28;20210;-78
2022/12/08 03:16:32;;;;;;;2.58;2.25;;;4.10;99.90;;;;;;5051104;28;20195;-77
2022/12/08 03:19:03;;;;;;;5.20;3.10;;;4.10;99.90;;;;;;5052044;28;20214;-77
2022/12/08 03:21:35;;;;;;;3.67;3.45;;;4.10;99.90;;;;;;5053471;28;20277;-78
2022/12/08 03:24:05;;;;;;;6.93;6.30;;;4.10;99.90;;;;;;5052758;28;20218;-78
2022/12/08 03:26:38;;;;;;;5.95;4.97;;;4.10;99.90;;;;;;5052481;28;20223;-78
2022/12/08 03:29:06;;;;;;;6.93;6.00;;;4.10;99.90;;;;;;5053579;28;20183;-78
2022/12/08 03:31:38;;;;;;;2.88;2.70;;;4.10;99.90;;;;;;5049447;28;20205;-78
2022/12/08 03:34:06;;;;;;;1.80;1.70;;;4.00;99.90;;;;;;5052727;28;20210;-78
2022/12/08 03:36:34;;;;;;;12.48;3.80;;;4.00;99.90;;;;;;5051984;28;20197;-78
2022/12/08 03:39:01;;;;;;;4.30;2.17;;;4.10;99.90;;;;;;5052305;28;20301;-78
2022/12/08 03:41:28;;;;;;;2.55;2.35;;;4.10;99.90;;;;;;5053046;28;20191;-76
2022/12/08 03:43:57;;;;;;;7.38;3.65;;;4.10;99.90;;;;;;5051522;28;20215;-77
2022/12/08 03:46:26;;;;;;;4.40;2.40;;;4.10;99.90;;;;;;5050987;28;20216;-75
2022/12/08 03:48:52;;;;;;;3.45;3.10;;;4.10;99.90;;;;;;5052552;28;20191;-78
2022/12/08 03:51:19;;;;;;;3.47;3.03;;;4.10;99.90;;;;;;5052500;28;20201;-77
2022/12/08 03:53:48;;;;;;;4.15;3.55;;;4.10;99.90;;;;;;5050142;28;20218;-77
2022/12/08 03:56:19;;;;;;;17.95;7.75;;;4.10;99.90;;;;;;5046469;28;20674;-78
2022/12/08 03:58:46;;;;;;;3.90;2.45;;;4.10;99.90;;;;;;5052059;28;20205;-77
2022/12/08 04:01:13;;;;;;;7.50;4.70;;;4.20;99.90;;;;;;5055028;28;20567;-77
2022/12/08 04:03:40;;;;;;;6.95;5.50;;;4.10;99.90;;;;;;5052253;28;20218;-77
2022/12/08 04:06:07;;;;;;;5.93;5.32;;;4.10;99.90;;;;;;5052770;28;20217;-76
2022/12/08 04:08:34;;;;;;;11.38;7.45;;;4.10;99.90;;;;;;5053353;28;20194;-76
2022/12/08 04:11:02;;;;;;;7.25;4.07;;;4.00;99.90;;;;;;5054082;28;20197;-77
2022/12/08 04:13:29;;;;;;;9.40;6.35;;;4.10;99.90;;;;;;5053908;28;20291;-78
2022/12/08 04:15:56;;;;;;;3.25;3.03;;;4.00;99.90;;;;;;5049733;28;20190;-78
2022/12/08 04:18:23;;;;;;;2.53;2.38;;;4.00;99.90;;;;;;5051936;28;20191;-77
2022/12/08 04:20:50;;;;;;;4.82;4.43;;;4.00;99.90;;;;;;5055574;28;20199;-78
2022/12/08 04:23:17;;;;;;;7.40;6.75;;;4.00;99.90;;;;;;5052691;28;20285;-78
2022/12/08 04:25:43;;;;;;;8.25;6.88;;;4.00;99.90;;;;;;5049472;28;20313;-76
2022/12/08 04:28:12;;;;;;;2.05;1.95;;;4.00;99.90;;;;;;5052300;28;20187;-79
2022/12/08 04:30:38;;;;;;;7.57;3.53;;;4.00;99.90;;;;;;5052095;28;20571;-79
2022/12/08 04:33:05;;;;;;;9.93;7.25;;;4.00;99.90;;;;;;5050217;28;20191;-79
2022/12/08 04:35:32;;;;;;;3.45;3.13;;;4.00;99.90;;;;;;5049538;28;20207;-79
2022/12/08 04:37:59;;;;;;;10.45;4.35;;;4.00;99.90;;;;;;5051069;28;20190;-78
2022/12/08 04:40:26;;;;;;;6.82;3.60;;;4.00;99.90;;;;;;5050983;28;20186;-77
2022/12/08 04:42:53;;;;;;;2.05;1.85;;;4.00;99.90;;;;;;5049472;28;20199;-77
2022/12/08 04:45:21;;;;;;;2.03;1.95;;;4.00;99.90;;;;;;5050267;28;20220;-76
2022/12/08 04:47:48;;;;;;;6.68;4.25;;;4.00;99.90;;;;;;5048945;28;20229;-77
2022/12/08 04:50:14;;;;;;;7.70;6.90;;;4.00;99.90;;;;;;5051137;28;20194;-77
2022/12/08 04:52:41;;;;;;;9.98;8.00;;;4.00;99.90;;;;;;5050553;28;20645;-78
2022/12/08 04:55:09;;;;;;;5.88;3.30;;;4.00;99.90;;;;;;5048138;28;20206;-79
2022/12/08 04:57:35;;;;;;;3.00;2.10;;;4.00;99.90;;;;;;5049495;28;20201;-77
2022/12/08 05:00:03;;;;;;;2.85;2.33;;;4.00;99.90;;;;;;5051596;28;20202;-79
2022/12/08 05:02:32;;;;;;;0.50;0.40;;;4.00;99.90;;;;;;5050267;28;20530;-76
2022/12/08 05:04:59;;;;;;;7.47;6.75;;;4.00;99.90;;;;;;5050955;28;20210;-78
2022/12/08 05:07:26;;;;;;;3.83;3.63;;;4.00;99.90;;;;;;5050563;28;20653;-77
2022/12/08 05:09:52;;;;;;;1.85;1.75;;;4.00;99.90;;;;;;5055586;28;20201;-78
2022/12/08 05:12:19;;;;;;;13.55;6.65;;;4.10;99.90;;;;;;5056287;28;20190;-76
2022/12/08 05:14:47;;;;;;;1.15;1.13;;;4.00;99.90;;;;;;5053883;28;20561;-78
2022/12/08 05:17:13;;;;;;;1.00;0.90;;;4.00;99.90;;;;;;5054872;28;20273;-77
2022/12/08 05:19:42;;;;;;;1.98;0.93;;;4.00;99.90;;;;;;5055178;28;20201;-78
2022/12/08 05:22:09;;;;;;;11.57;3.53;;;4.00;99.90;;;;;;5055494;28;20195;-79
2022/12/08 05:24:36;;;;;;;2.85;2.28;;;4.10;99.90;;;;;;5052757;28;20218;-78
2022/12/08 05:27:03;;;;;;;0.77;0.77;;;4.00;99.90;;;;;;5054810;28;20215;-78
2022/12/08 05:29:29;;;;;;;4.30;3.92;;;4.00;99.90;;;;;;5055134;28;20197;-77
2022/12/08 05:31:56;;;;;;;5.65;5.00;;;4.00;99.90;;;;;;5054441;28;20197;-78
2022/12/08 05:34:23;;;;;;;2.15;1.73;;;4.00;99.90;;;;;;5054655;28;20755;-77
2022/12/08 05:36:51;;;;;;;3.55;1.63;;;4.10;99.90;;;;;;5055070;28;20712;-78
2022/12/08 05:39:18;;;;;;;2.88;1.67;;;4.10;99.90;;;;;;5052830;28;20198;-79
2022/12/08 05:41:45;;;;;;;1.20;1.10;;;4.10;99.90;;;;;;5054323;28;20190;-78
2022/12/08 05:44:12;;;;;;;4.10;3.90;;;4.10;99.90;;;;;;5052988;28;20246;-77
2022/12/08 05:46:38;;;;;;;4.88;3.78;;;4.10;99.90;;;;;;5054454;28;20215;-77
2022/12/08 05:49:05;;;;;;;2.45;2.25;;;4.10;99.90;;;;;;5053368;28;20197;-78
2022/12/08 05:51:32;;;;;;;3.35;2.42;;;4.10;99.90;;;;;;5054816;28;20207;-77
2022/12/08 05:54:00;;;;;;;5.40;4.78;;;4.10;99.90;;;;;;5053742;28;20588;-78
2022/12/08 05:56:27;;;;;;;1.77;1.25;;;4.10;99.90;;;;;;5050048;28;20183;-77
2022/12/08 05:58:54;;;;;;;0.50;0.50;;;4.10;99.90;;;;;;5053124;28;20195;-77
2022/12/08 06:01:23;;;;;;;3.15;3.05;;;4.10;99.90;;;;;;5054395;28;20201;-77
2022/12/08 06:03:49;;;;;;;0.50;0.40;;;4.10;99.90;;;;;;5054961;28;20206;-79
2022/12/08 06:06:16;;;;;;;2.08;1.75;;;4.10;99.90;;;;;;5049301;28;20313;-79
2022/12/08 06:08:43;;;;;;;2.90;1.35;;;4.00;99.90;;;;;;5053205;28;20270;-79
2022/12/08 06:11:18;;;;;;;0.50;0.40;;;4.00;99.90;;;;;;5054453;28;20197;-79
2022/12/08 06:13:45;;;;;;;0.80;0.70;;;4.00;99.90;;;;;;5054009;28;20221;-77
2022/12/08 06:16:12;;;;;;;2.15;1.88;;;4.00;99.90;;;;;;5053618;28;20201;-75
2022/12/08 06:18:39;;;;;;;3.42;3.20;;;4.00;99.90;;;;;;5050802;28;20201;-76
2022/12/08 06:21:06;;;;;;;6.30;5.72;;;4.00;99.90;;;;;;5052836;28;20555;-78
2022/12/08 06:23:33;;;;;;;3.55;1.48;;;4.00;99.90;;;;;;5053985;28;20215;-78
2022/12/08 06:26:01;;;;;;;4.63;4.10;;;4.00;99.90;;;;;;5053289;28;20699;-78
2022/12/08 06:28:30;;;;;;;2.08;1.88;;;4.00;99.90;;;;;;5051785;28;20656;-76
2022/12/08 06:30:57;;;;;;;3.03;1.83;;;4.10;99.90;;;;;;5053625;28;20197;-78
2022/12/08 06:33:25;;;;;;;4.05;2.47;;;4.10;99.90;;;;;;5053755;28;20209;-79
2022/12/08 06:35:52;;;;;;;1.45;1.13;;;4.00;99.90;;;;;;5053460;28;20731;-78
2022/12/08 06:38:19;;;;;;;11.88;6.45;;;4.00;99.90;;;;;;5053107;28;20194;-79
2022/12/08 06:40:53;;;;;;;2.70;2.47;;;4.10;99.90;;;;;;5053730;28;20556;-78
2022/12/08 06:43:20;;;;;;;2.13;1.98;;;4.00;99.90;;;;;;5049552;28;20587;-78
2022/12/08 06:45:48;;;;;;;0.82;0.77;;;4.00;99.90;;;;;;5053169;28;20576;-79
2022/12/08 06:48:15;;;;;;;0.80;0.80;;;4.00;99.90;;;;;;5054302;28;20195;-74
2022/12/08 06:50:42;;;;;;;0.50;0.40;;;4.00;99.90;;;;;;5052533;28;20632;-77
2022/12/08 06:53:11;;;;;;;3.47;2.42;;;4.00;99.90;;;;;;5053882;28;20559;-78
2022/12/08 06:55:38;;;;;;;2.65;2.55;;;4.00;99.90;;;;;;5046005;28;20192;-78
2022/12/08 06:58:05;;;;;;;7.15;4.82;;;4.10;99.90;;;;;;5053544;28;20199;-77
2022/12/08 07:00:31;;;;;;;24.08;2.05;;;4.10;99.90;;;;;;5052830;28;20226;-78
2022/12/08 07:02:59;;;;;;;0.70;0.68;;;4.10;99.90;;;;;;5053743;28;20241;-78
2022/12/08 07:05:26;;;;;;;0.50;0.40;;;4.20;99.90;;;;;;5051017;28;20211;-78
2022/12/08 07:07:53;;;;;;;0.65;0.65;;;4.20;99.90;;;;;;5054996;28;20194;-77
2022/12/08 07:10:20;;;;;;;0.50;0.40;;;4.20;99.90;;;;;;5052437;28;20187;-77
2022/12/08 07:12:47;;;;;;;4.43;0.85;;;4.20;99.90;;;;;;5053342;28;20191;-79
2022/12/08 07:15:13;;;;;;;1.90;1.90;;;4.10;99.90;;;;;;5051222;28;20639;-77
2022/12/08 07:17:40;;;;;;;8.05;6.07;;;4.10;99.90;;;;;;5049201;28;20206;-77
2022/12/08 07:20:09;;;;;;;8.35;4.53;;;4.10;99.90;;;;;;5051786;28;20191;-77
2022/12/08 07:22:36;;;;;;;11.07;8.00;;;4.10;99.90;;;;;;5050737;28;20252;-78
2022/12/08 07:25:03;;;;;;;2.45;2.35;;;4.00;99.90;;;;;;5051800;28;20584;-78
2022/12/08 07:27:29;;;;;;;0.50;0.50;;;4.00;99.90;;;;;;5052394;28;20223;-78
2022/12/08 07:29:56;;;;;;;3.08;2.78;;;4.00;99.90;;;;;;5059100;28;20273;-77
2022/12/08 07:32:23;;;;;;;1.60;1.50;;;4.00;99.90;;;;;;5052031;28;20186;-76
2022/12/08 07:34:50;;;;;;;4.53;3.03;;;4.00;99.90;;;;;;5049154;28;20218;-78
2022/12/08 07:37:18;;;;;;;25.80;6.30;;;4.00;99.90;;;;;;5045976;28;20591;-78
2022/12/08 07:39:46;;;;;;;1.10;1.00;;;3.90;99.90;;;;;;5050648;28;20623;-77
2022/12/08 07:42:13;;;;;;;4.93;4.50;;;3.90;99.90;;;;;;5045534;28;20293;-77
2022/12/08 07:44:39;;;;;;;0.50;0.47;;;3.90;99.90;;;;;;5048345;28;20233;-74
2022/12/08 07:47:06;;;;;;;6.05;1.00;;;3.90;99.90;;;;;;5050668;28;20232;-75
2022/12/08 07:49:33;;;;;;;4.80;3.97;;;3.80;99.90;;;;;;5050204;28;21003;-78
2022/12/08 07:52:00;;;;;;;4.05;1.73;;;3.90;99.90;;;;;;5049601;28;20206;-77
2022/12/08 07:54:28;;;;;;;6.10;4.60;;;3.90;99.90;;;;;;5050713;28;20704;-77
2022/12/08 07:56:57;;;;;;;0.73;0.73;;;3.90;99.90;;;;;;5044482;28;20228;-78
2022/12/08 07:59:24;;;;;;;0.85;0.85;;;3.90;99.90;;;;;;5050029;28;20688;-76
2022/12/08 08:01:51;;;;;;;2.78;1.77;;;3.80;99.90;;;;;;5051051;28;20190;-77
2022/12/08 08:04:18;;;;;;;0.50;0.40;;;3.70;99.90;;;;;;5049611;28;20702;-77
2022/12/08 08:06:44;;;;;;;6.97;0.85;;;3.70;99.90;;;;;;5050094;28;20225;-78
2022/12/08 08:09:11;;;;;;;0.65;0.65;;;3.70;99.90;;;;;;5050612;28;20222;-77
2022/12/08 08:11:40;;;;;;;7.63;4.45;;;3.70;99.90;;;;;;5047613;28;20213;-75
2022/12/08 08:14:07;;;;;;;4.57;2.55;;;3.60;99.90;;;;;;5046298;28;20219;-77
2022/12/08 08:16:33;;;;;;;3.22;3.03;;;3.70;99.90;;;;;;5046547;28;20281;-77
2022/12/08 08:19:00;;;;;;;0.50;0.50;;;3.60;99.90;;;;;;5048848;28;20190;-77
2022/12/08 08:21:27;;;;;;;1.33;1.23;;;3.60;99.90;;;;;;5050026;28;20205;-77
2022/12/08 08:23:54;;;;;;;3.97;2.65;;;3.60;99.90;;;;;;5050832;28;20210;-74
2022/12/08 08:26:21;;;;;;;1.40;1.30;;;3.60;99.90;;;;;;5049821;28;20228;-73
2022/12/08 08:28:49;;;;;;;4.10;3.75;;;3.60;99.90;;;;;;5048614;28;21840;-75
2022/12/08 08:31:16;;;;;;;3.60;2.78;;;3.60;99.90;;;;;;5043149;28;20619;-79
2022/12/08 08:33:42;;;;;;;3.92;2.65;;;3.60;99.90;;;;;;5050226;28;20229;-77
2022/12/08 08:36:10;;;;;;;2.25;2.05;;;3.60;99.90;;;;;;5050579;28;20194;-77
2022/12/08 08:38:38;;;;;;;8.82;2.80;;;3.50;99.90;;;;;;5051118;28;20293;-78
2022/12/08 08:41:08;;;;;;;6.90;4.90;;;3.60;99.90;;;;;;5051623;28;20213;-77
2022/12/08 08:43:35;;;;;;;5.50;2.78;;;3.50;99.90;;;;;;5047933;28;20248;-77
2022/12/08 08:46:04;;;;;;;5.55;2.00;;;3.50;99.90;;;;;;5050353;28;20567;-77
2022/12/08 08:48:32;;;;;;;4.00;2.70;;;3.50;99.90;;;;;;5050881;28;20201;-77
2022/12/08 08:51:06;;;;;;;3.20;2.28;;;3.60;99.90;;;;;;5051077;28;20192;-77
2022/12/08 08:53:33;;;;;;;3.13;2.80;;;3.50;99.90;;;;;;5048715;28;20209;-78
2022/12/08 08:55:59;;;;;;;2.78;2.58;;;3.50;99.90;;;;;;5043242;28;20198;-78
2022/12/08 08:58:26;;;;;;;1.35;1.08;;;3.50;99.90;;;;;;5051368;28;20285;-77
2022/12/08 09:00:53;;;;;;;2.83;2.63;;;3.50;99.90;;;;;;5051089;28;20198;-77
2022/12/08 09:03:21;;;;;;;3.42;2.08;;;3.60;99.90;;;;;;5049190;28;20201;-78
2022/12/08 09:05:48;;;;;;;1.80;1.50;;;3.50;99.90;;;;;;5049734;28;20205;-79
2022/12/08 09:08:15;;;;;;;3.83;2.55;;;3.60;99.90;;;;;;5050935;28;20218;-78
2022/12/08 09:10:42;;;;;;;2.28;2.03;;;3.60;99.90;;;;;;5050724;28;20297;-77
2022/12/08 09:13:09;;;;;;;3.53;3.22;;;3.60;99.90;;;;;;5049100;28;20197;-78
2022/12/08 09:15:36;;;;;;;2.03;1.92;;;3.50;99.90;;;;;;5049678;28;20186;-78
2022/12/08 09:18:05;;;;;;;6.05;5.47;;;3.50;99.90;;;;;;5049046;28;20198;-78
2022/12/08 09:20:33;;;;;;;3.35;1.35;;;3.50;99.90;;;;;;5050377;28;20199;-77
2022/12/08 09:23:00;;;;;;;10.77;3.85;;;3.50;99.90;;;;;;5050894;28;20222;-78
2022/12/08 09:25:28;;;;;;;2.35;2.15;;;3.50;99.90;;;;;;5048836;28;20215;-77
2022/12/08 09:27:55;;;;;;;1.45;1.35;;;3.50;99.90;;;;;;5031091;28;20557;-78
2022/12/08 09:30:21;;;;;;;10.32;5.53;;;3.50;99.90;;;;;;5031065;28;20196;-75
2022/12/08 09:32:48;;;;;;;5.53;4.97;;;3.50;99.90;;;;;;5042156;28;20202;-78
2022/12/08 09:35:15;;;;;;;2.90;2.65;;;3.50;99.90;;;;;;5049227;28;20587;-77
2022/12/08 09:37:43;;;;;;;4.05;3.70;;;3.50;99.90;;;;;;5050864;28;20282;-78
2022/12/08 09:40:15;;;;;;;0.70;0.70;;;3.50;99.90;;;;;;5051088;28;20241;-77
2022/12/08 09:42:46;;;;;;;3.75;3.47;;;3.50;99.90;;;;;;5049459;28;20294;-78
2022/12/08 09:45:16;;;;;;;4.75;3.95;;;3.50;99.90;;;;;;5049769;28;20597;-75
2022/12/08 09:47:45;;;;;;;0.50;0.50;;;3.60;99.90;;;;;;5049059;28;20210;-78
2022/12/08 09:50:18;;;;;;;1.13;1.13;;;3.60;99.90;;;;;;5050331;28;20187;-78
2022/12/08 09:52:57;;;;;;;4.00;3.53;;;3.60;99.90;;;;;;5049751;28;20186;-79
2022/12/08 09:55:40;;;;;;;2.13;1.95;;;3.70;99.90;;;;;;5044551;28;20297;-78
2022/12/08 09:58:17;;;;;;;6.85;6.10;;;3.70;99.90;;;;;;5051892;28;20743;-78
2022/12/08 10:00:44;;;;;;;4.07;3.38;;;3.60;99.90;;;;;;5052694;28;20202;-78
2022/12/08 10:03:12;;;;;;;11.02;7.22;;;3.70;99.90;;;;;;5052131;28;20200;-75
2022/12/08 10:05:46;;;;;;;0.50;0.40;;;3.70;99.90;;;;;;5052647;28;20191;-79
2022/12/08 10:08:20;;;;;;;9.02;4.43;;;3.60;99.90;;;;;;5052767;28;20198;-79
2022/12/08 10:10:52;;;;;;;7.20;4.70;;;3.70;99.90;;;;;;5053662;28;20201;-79
2022/12/08 10:13:24;;;;;;;1.88;1.77;;;3.70;99.90;;;;;;5053356;28;20179;-78
2022/12/08 10:16:04;;;;;;;7.80;6.38;;;3.70;99.90;;;;;;5052965;28;20684;-78
2022/12/08 10:18:34;;;;;;;1.33;1.33;;;3.80;99.90;;;;;;5050620;28;20281;-78
2022/12/08 10:21:14;;;;;;;13.05;7.50;;;3.80;99.90;;;;;;5053434;28;20194;-79
2022/12/08 10:23:45;;;;;;;4.50;3.72;;;3.80;99.90;;;;;;5053460;28;20219;-78
2022/12/08 10:26:14;;;;;;;4.00;2.47;;;3.80;99.90;;;;;;5051370;28;20274;-78
2022/12/08 10:28:41;;;;;;;1.63;1.52;;;3.80;99.90;;;;;;5053465;28;20271;-78
2022/12/08 10:31:15;;;;;;;7.43;1.48;;;3.70;99.90;;;;;;5052961;28;20317;-79
2022/12/08 10:33:43;;;;;;;4.30;4.05;;;3.70;99.90;;;;;;5053005;28;20218;-79
2022/12/08 10:36:11;;;;;;;10.02;6.63;;;3.80;99.90;;;;;;5052803;28;20191;-78
2022/12/08 10:38:39;;;;;;;2.45;1.98;;;3.80;99.90;;;;;;5053412;28;20289;-77
2022/12/08 10:41:16;;;;;;;7.40;1.75;;;3.80;99.90;;;;;;5053190;28;20194;-77
2022/12/08 10:43:47;;;;;;;5.38;4.88;;;3.80;99.90;;;;;;5052270;28;20214;-74
2022/12/08 10:46:17;;;;;;;1.08;1.08;;;3.80;99.90;;;;;;5051931;28;20278;-76
2022/12/08 10:48:52;;;;;;;0.50;0.50;;;3.80;99.90;;;;;;5053017;28;20220;-78
2022/12/08 10:51:23;;;;;;;4.32;2.53;;;3.80;99.90;;;;;;5053050;28;20195;-77
2022/12/08 10:53:50;;;;;;;0.75;0.70;;;3.80;99.90;;;;;;5045464;28;20220;-77
2022/12/08 10:56:18;;;;;;;1.30;1.20;;;3.80;99.90;;;;;;5051895;28;20262;-76
2022/12/08 10:58:47;;;;;;;4.20;2.97;;;3.90;99.90;;;;;;5051782;28;20205;-77
2022/12/08 11:01:17;;;;;;;0.50;0.40;;;3.80;99.90;;;;;;5051282;28;20201;-78
2022/12/08 11:03:48;;;;;;;6.22;4.95;;;3.80;99.90;;;;;;5052091;28;20245;-76
2022/12/08 11:06:19;;;;;;;2.08;1.23;;;3.80;99.90;;;;;;5051935;28;20661;-76
2022/12/08 11:08:49;;;;;;;7.80;3.30;;;3.90;99.90;;;;;;5052704;28;20317;-74
2022/12/08 11:11:18;;;;;;;5.45;4.10;;;3.90;99.90;;;;;;5054040;28;20186;-78
2022/12/08 11:13:47;;;;;;;0.50;0.40;;;3.90;99.90;;;;;;5051706;28;20217;-78
2022/12/08 11:16:15;;;;;;;4.85;3.35;;;3.90;99.90;;;;;;5052476;28;20198;-76
2022/12/08 11:18:45;;;;;;;3.53;3.22;;;4.00;99.90;;;;;;5051856;28;20201;-77
2022/12/08 11:21:15;;;;;;;0.50;0.50;;;4.00;99.90;;;;;;5050998;28;20190;-77
2022/12/08 11:23:46;;;;;;;0.50;0.40;;;4.00;99.90;;;;;;5053246;28;20314;-78
2022/12/08 11:26:25;;;;;;;3.00;2.22;;;4.00;99.90;;;;;;5052941;28;20187;-78
2022/12/08 11:28:52;;;;;;;2.47;1.98;;;4.00;99.90;;;;;;5052812;28;20203;-77
2022/12/08 11:31:28;;;;;;;0.52;0.50;;;4.00;99.90;;;;;;5051192;28;20217;-77
2022/12/08 11:33:56;;;;;;;1.83;1.73;;;4.00;99.90;;;;;;5043698;28;20230;-76
2022/12/08 11:36:26;;;;;;;1.45;1.45;;;4.00;99.90;;;;;;5052458;28;20285;-77
2022/12/08 11:38:57;;;;;;;8.57;6.45;;;4.00;99.90;;;;;;5052721;28;20266;-76
2022/12/08 11:41:29;;;;;;;4.35;4.05;;;4.00;99.90;;;;;;5051007;28;20206;-73
2022/12/08 11:44:01;;;;;;;8.23;4.18;;;3.90;99.90;;;;;;5050413;28;20298;-77
2022/12/08 11:46:34;;;;;;;1.08;1.08;;;4.00;99.90;;;;;;5051852;28;20204;-76
2022/12/08 11:49:03;;;;;;;7.00;3.50;;;4.00;99.90;;;;;;5052200;28;20230;-77
2022/12/08 11:51:34;;;;;;;7.45;7.00;;;4.00;99.90;;;;;;5050466;28;20671;-74
2022/12/08 11:54:13;;;;;;;2.55;2.40;;;4.00;99.90;;;;;;5043771;28;20294;-78
2022/12/08 11:56:44;;;;;;;1.70;1.60;;;3.90;99.90;;;;;;5051382;28;20660;-77
2022/12/08 11:59:19;;;;;;;0.50;0.40;;;3.90;99.90;;;;;;5050762;28;20198;-78
2022/12/08 12:01:46;;;;;;;2.05;1.67;;;3.90;99.90;;;;;;5049235;28;20190;-77
2022/12/08 12:04:20;;;;;;;1.02;1.02;;;3.90;99.90;;;;;;5051478;28;20214;-75
2022/12/08 12:07:13;;;;;;;1.23;1.13;;;3.90;99.90;;;;;;5051402;28;20332;-77
2022/12/08 12:09:51;;;;;;;2.55;2.35;;;3.90;99.90;;;;;;5024922;28;20261;-77
2022/12/08 12:12:30;;;;;;;0.60;0.60;;;3.80;99.90;;;;;;5049944;28;20865;-77
2022/12/08 12:15:30;;;;;;;1.25;1.25;;;3.80;99.90;;;;;;5049369;28;20216;-77
2022/12/08 12:18:01;;;;;;;1.25;1.25;;;3.80;99.90;;;;;;5034150;28;20187;-78
2022/12/08 12:20:31;;;;;;;0.50;0.40;;;3.70;99.90;;;;;;5050305;28;20193;-78
2022/12/08 12:23:04;;;;;;;2.88;2.67;;;3.60;99.90;;;;;;5051049;28;20691;-76
2022/12/08 12:25:33;;;;;;;11.70;5.55;;;3.50;99.90;;;;;;5049255;28;20226;-77
2022/12/08 12:28:06;;;;;;;0.88;0.88;;;3.60;99.90;;;;;;5051243;28;20617;-77
2022/12/08 12:30:50;;;;;;;2.78;2.47;;;3.50;99.90;;;;;;5050945;28;20183;-77
2022/12/08 12:33:18;;;;;;;0.63;0.60;;;3.50;99.90;;;;;;5049987;28;20198;-77
2022/12/08 12:35:47;;;;;;;3.40;2.28;;;3.50;99.90;;;;;;5048144;28;20198;-77
2022/12/08 12:41:08;;;;;;;0.80;0.80;;;3.40;99.90;;;;;;5050821;28;20198;-78
2022/12/08 12:43:38;;;;;;;4.68;4.13;;;3.40;99.90;;;;;;5049876;28;20216;-78
2022/12/08 12:46:40;;;;;;;0.65;0.65;;;3.40;99.90;;;;;;5050347;28;20281;-77
2022/12/08 12:49:44;;;;;;;0.50;0.40;;;3.50;99.90;;;;;;5051054;28;20233;-77
2022/12/08 12:52:53;;;;;;;0.90;0.90;;;3.50;99.90;;;;;;5046177;28;20195;-77
2022/12/08 12:55:29;;;;;;;0.50;0.50;;;3.60;99.90;;;;;;5005432;28;20214;-77
2022/12/08 12:57:58;;;;;;;0.95;0.95;;;3.60;99.90;;;;;;5030546;28;20213;-74
2022/12/08 13:00:27;;;;;;;0.50;0.40;;;3.70;99.90;;;;;;5050935;28;20277;-76
2022/12/08 13:02:57;;;;;;;0.95;0.95;;;3.70;99.90;;;;;;5051282;28;20289;-77
2022/12/08 13:05:26;;;;;;;2.95;2.10;;;3.80;99.90;;;;;;5049162;28;20217;-77
2022/12/08 13:07:56;;;;;;;0.52;0.52;;;3.80;99.90;;;;;;5050844;28;20217;-77
2022/12/08 13:10:26;;;;;;;2.40;2.20;;;3.80;99.90;;;;;;5049549;28;20282;-73
2022/12/08 13:13:07;;;;;;;4.80;3.72;;;3.90;99.90;;;;;;5050799;28;20245;-77
2022/12/08 13:15:38;;;;;;;4.80;3.15;;;3.90;99.90;;;;;;5050408;28;20696;-77
2022/12/08 13:18:06;;;;;;;0.50;0.40;;;3.80;99.90;;;;;;5050705;28;20212;-79